Time;durP1;ratioP1;P1;durP2;ratioP2;P2;SDS_P1;SDS_P2;PMS_P1;PMS_P2;Temp;Humidity;BMP_temperature;BMP_pressure;BME280_temperature;BME280_humidity;BME280_pressure;Samples;Min_cycle;Max_cycle;Signal;HPM_P1;HPM_P2
2023/08/28 00:00:27;;;;;;;1.00;1.00;;;22.70;97.10;;;;;;5028023;28;20184;-69
2023/08/28 00:02:54;;;;;;;1.45;1.10;;;22.70;97.10;;;;;;5040422;28;20206;-69
2023/08/28 00:05:20;;;;;;;0.80;0.80;;;22.80;97.10;;;;;;5044405;28;20333;-69
2023/08/28 00:07:46;;;;;;;1.27;1.10;;;22.80;97.10;;;;;;5036886;28;20225;-69
2023/08/28 00:10:11;;;;;;;1.00;1.00;;;22.70;97.10;;;;;;5027718;28;20273;-69
2023/08/28 00:12:40;;;;;;;1.15;0.95;;;22.70;97.10;;;;;;5029769;28;20175;-69
2023/08/28 00:15:10;;;;;;;1.00;1.00;;;22.80;97.20;;;;;;5051363;28;20194;-69
2023/08/28 00:17:37;;;;;;;0.93;0.93;;;22.70;97.10;;;;;;5038032;28;20190;-69
2023/08/28 00:20:10;;;;;;;0.90;0.90;;;22.70;97.20;;;;;;5032840;28;20230;-69
2023/08/28 00:22:36;;;;;;;1.02;0.95;;;22.70;97.10;;;;;;5030604;28;20182;-69
2023/08/28 00:25:04;;;;;;;1.10;1.00;;;22.70;97.10;;;;;;5042562;28;20195;-69
2023/08/28 00:27:31;;;;;;;0.98;0.93;;;22.70;97.10;;;;;;5021391;28;20206;-69
2023/08/28 00:29:57;;;;;;;1.00;1.00;;;22.70;97.20;;;;;;5045402;28;20190;-69
2023/08/28 00:32:23;;;;;;;0.80;0.80;;;22.70;97.20;;;;;;5035969;28;20183;-69
2023/08/28 00:34:49;;;;;;;0.88;0.88;;;22.70;97.10;;;;;;5027497;28;20176;-70
2023/08/28 00:37:16;;;;;;;1.00;1.00;;;22.70;97.10;;;;;;5035712;28;20206;-69
2023/08/28 00:39:42;;;;;;;0.77;0.75;;;22.70;97.10;;;;;;5035849;28;20179;-69
2023/08/28 00:42:08;;;;;;;0.98;0.90;;;22.70;97.10;;;;;;5027275;28;20193;-69
2023/08/28 00:44:33;;;;;;;1.05;1.00;;;22.70;97.10;;;;;;5044120;28;20178;-69
2023/08/28 00:47:00;;;;;;;1.02;1.00;;;22.70;97.10;;;;;;5027161;28;20261;-69
2023/08/28 00:49:27;;;;;;;0.95;0.95;;;22.70;97.10;;;;;;5029890;28;20194;-69
2023/08/28 00:51:53;;;;;;;0.75;0.75;;;22.70;97.00;;;;;;5029145;28;20214;-69
2023/08/28 00:54:19;;;;;;;0.90;0.90;;;22.70;97.10;;;;;;5032251;28;20210;-69
2023/08/28 00:56:47;;;;;;;1.30;1.20;;;22.70;97.10;;;;;;5032289;28;20205;-69
2023/08/28 00:59:16;;;;;;;1.08;1.02;;;22.70;97.10;;;;;;5031677;28;20183;-69
2023/08/28 01:01:43;;;;;;;1.10;1.02;;;22.70;97.10;;;;;;5046720;28;20676;-69
2023/08/28 01:04:09;;;;;;;0.80;0.80;;;22.70;97.10;;;;;;5040969;28;20263;-69
2023/08/28 01:07:00;;;;;;;1.23;1.13;;;22.70;97.10;;;;;;5031821;28;20257;-69
2023/08/28 01:10:00;;;;;;;1.00;1.00;;;22.70;97.10;;;;;;5040601;28;20182;-69
2023/08/28 01:12:47;;;;;;;1.08;0.98;;;22.70;97.10;;;;;;5024372;28;20187;-69
2023/08/28 01:15:21;;;;;;;0.85;0.85;;;22.70;97.10;;;;;;5032772;28;20200;-69
2023/08/28 01:17:54;;;;;;;1.20;0.90;;;22.70;97.10;;;;;;5035452;28;20562;-69
2023/08/28 01:20:23;;;;;;;0.80;0.80;;;22.70;97.10;;;;;;5043295;28;20193;-69
2023/08/28 01:22:57;;;;;;;1.10;1.02;;;22.70;97.00;;;;;;5036152;28;20678;-69
2023/08/28 01:25:29;;;;;;;0.85;0.85;;;22.70;97.10;;;;;;5027020;28;20213;-69
2023/08/28 01:27:57;;;;;;;0.80;0.80;;;22.70;97.10;;;;;;5043378;28;20223;-69
2023/08/28 01:30:23;;;;;;;1.17;1.08;;;22.70;97.10;;;;;;5028318;28;20253;-69
2023/08/28 01:32:49;;;;;;;1.00;0.90;;;22.70;97.00;;;;;;5051582;28;20293;-69
2023/08/28 01:35:24;;;;;;;1.50;0.95;;;22.70;97.30;;;;;;5051067;28;20220;-69
2023/08/28 01:38:19;;;;;;;0.80;0.80;;;22.70;97.10;;;;;;5051333;28;20216;-69
2023/08/28 01:40:57;;;;;;;0.95;0.82;;;22.70;97.10;;;;;;5041263;28;20265;-70
2023/08/28 01:43:27;;;;;;;0.80;0.80;;;22.70;96.90;;;;;;5043075;28;20273;-69
2023/08/28 01:45:54;;;;;;;0.88;0.88;;;22.70;97.00;;;;;;5007524;28;20239;-69
2023/08/28 01:48:20;;;;;;;0.70;0.70;;;22.70;97.10;;;;;;5033226;28;20206;-69
2023/08/28 01:50:47;;;;;;;0.93;0.88;;;22.70;97.00;;;;;;5050941;28;20175;-69
2023/08/28 01:53:13;;;;;;;0.85;0.85;;;22.70;97.00;;;;;;5034261;28;20200;-69
2023/08/28 01:55:45;;;;;;;1.10;1.00;;;22.60;97.00;;;;;;5042561;28;20202;-69
2023/08/28 01:58:12;;;;;;;0.80;0.80;;;22.70;97.00;;;;;;5050769;28;20233;-69
2023/08/28 02:00:39;;;;;;;1.00;0.98;;;22.70;97.00;;;;;;5045697;28;20186;-69
2023/08/28 02:03:06;;;;;;;1.02;0.95;;;22.70;97.10;;;;;;5023303;28;20182;-69
2023/08/28 02:05:32;;;;;;;0.85;0.85;;;22.70;97.00;;;;;;5050586;28;20715;-69
2023/08/28 02:07:59;;;;;;;1.00;0.90;;;22.70;97.10;;;;;;5050900;28;20207;-69
2023/08/28 02:10:27;;;;;;;0.82;0.80;;;22.60;97.00;;;;;;5018699;28;20182;-69
2023/08/28 02:12:53;;;;;;;0.70;0.70;;;22.60;97.30;;;;;;5042381;28;20182;-70
2023/08/28 02:15:19;;;;;;;0.70;0.70;;;22.70;97.00;;;;;;5041316;28;20217;-69
2023/08/28 02:17:45;;;;;;;0.80;0.80;;;22.60;96.90;;;;;;5044588;28;20193;-69
2023/08/28 02:20:10;;;;;;;1.00;0.80;;;22.60;97.00;;;;;;5048346;28;20199;-70
2023/08/28 02:22:36;;;;;;;0.73;0.73;;;22.70;97.00;;;;;;5042305;28;20206;-70
2023/08/28 02:25:05;;;;;;;0.95;0.90;;;22.60;97.00;;;;;;5042308;28;20187;-69
2023/08/28 02:27:32;;;;;;;0.90;0.90;;;22.60;96.90;;;;;;5027978;28;20237;-70
2023/08/28 02:29:59;;;;;;;3.60;1.10;;;22.60;96.90;;;;;;5034888;28;20179;-69
2023/08/28 02:32:25;;;;;;;0.82;0.82;;;22.60;96.90;;;;;;5022168;28;20190;-70
2023/08/28 02:34:52;;;;;;;0.90;0.90;;;22.60;96.90;;;;;;5017725;28;20175;-69
2023/08/28 02:37:19;;;;;;;1.20;0.80;;;22.60;96.90;;;;;;5014444;28;20191;-69
2023/08/28 02:39:45;;;;;;;0.90;0.90;;;22.60;96.90;;;;;;5027840;28;20273;-69
2023/08/28 02:42:10;;;;;;;2.13;0.73;;;22.60;96.90;;;;;;5050629;28;20197;-69
2023/08/28 02:44:36;;;;;;;0.70;0.70;;;22.60;96.90;;;;;;5036023;28;20179;-69
2023/08/28 02:47:02;;;;;;;0.80;0.80;;;22.60;96.90;;;;;;5025547;28;20217;-69
2023/08/28 02:49:28;;;;;;;0.93;0.90;;;22.60;96.90;;;;;;5040342;28;20170;-69
2023/08/28 02:51:54;;;;;;;1.10;1.00;;;22.60;96.90;;;;;;5042107;28;20185;-69
2023/08/28 02:54:20;;;;;;;0.88;0.88;;;22.60;96.90;;;;;;5042994;28;20175;-69
2023/08/28 02:56:45;;;;;;;1.13;0.68;;;22.60;97.00;;;;;;5042941;28;20198;-69
2023/08/28 02:59:11;;;;;;;1.23;0.90;;;22.60;96.90;;;;;;5031944;28;20194;-69
2023/08/28 03:01:37;;;;;;;1.10;1.00;;;22.60;96.80;;;;;;5037693;28;20187;-69
2023/08/28 03:04:06;;;;;;;0.77;0.77;;;22.60;96.80;;;;;;5013624;28;20187;-69
2023/08/28 03:06:36;;;;;;;0.88;0.88;;;22.60;96.80;;;;;;5010266;28;20208;-69
2023/08/28 03:09:05;;;;;;;0.70;0.70;;;22.60;96.90;;;;;;5026397;28;20187;-69
2023/08/28 03:11:30;;;;;;;1.08;0.98;;;22.60;96.90;;;;;;5030191;28;20175;-69
2023/08/28 03:13:56;;;;;;;0.93;0.93;;;22.60;96.90;;;;;;5029986;28;20187;-69
2023/08/28 03:16:22;;;;;;;0.85;0.80;;;22.60;96.90;;;;;;5029955;28;20242;-70
2023/08/28 03:18:49;;;;;;;1.05;0.95;;;22.60;97.20;;;;;;5013799;28;20184;-69
2023/08/28 03:21:15;;;;;;;1.77;0.90;;;22.60;96.80;;;;;;5027787;28;20188;-69
2023/08/28 03:23:40;;;;;;;0.90;0.90;;;22.60;96.80;;;;;;5011397;28;20650;-69
2023/08/28 03:26:06;;;;;;;0.98;0.98;;;22.60;96.80;;;;;;5011246;28;20219;-69
2023/08/28 03:28:32;;;;;;;0.98;0.85;;;22.60;96.80;;;;;;5017573;28;20687;-69
2023/08/28 03:31:00;;;;;;;0.82;0.70;;;22.60;96.80;;;;;;5033781;28;20226;-69
2023/08/28 03:33:27;;;;;;;0.90;0.90;;;22.60;96.80;;;;;;5032908;28;20188;-69
2023/08/28 03:35:53;;;;;;;0.80;0.80;;;22.60;96.80;;;;;;5013765;28;20211;-69
2023/08/28 03:38:19;;;;;;;0.70;0.70;;;22.60;96.90;;;;;;5017194;28;20202;-69
2023/08/28 03:40:46;;;;;;;0.70;0.70;;;22.50;96.80;;;;;;5013981;28;20235;-69
2023/08/28 03:43:12;;;;;;;0.90;0.90;;;22.50;96.80;;;;;;5027728;28;20194;-70
2023/08/28 03:45:39;;;;;;;1.00;0.90;;;22.60;96.70;;;;;;5029605;28;20227;-69
2023/08/28 03:48:06;;;;;;;0.60;0.60;;;22.60;96.80;;;;;;5012872;28;20245;-69
2023/08/28 03:50:32;;;;;;;0.80;0.77;;;22.60;96.80;;;;;;5033057;28;20198;-70
2023/08/28 03:52:59;;;;;;;0.80;0.80;;;22.50;96.80;;;;;;5026766;28;20238;-69
2023/08/28 03:55:29;;;;;;;1.67;0.82;;;22.60;96.80;;;;;;5032254;28;20230;-69
2023/08/28 03:57:56;;;;;;;0.95;0.95;;;22.60;96.70;;;;;;5013667;28;20210;-69
2023/08/28 04:00:22;;;;;;;1.42;1.00;;;22.50;96.80;;;;;;5033190;28;20217;-69
2023/08/28 04:02:48;;;;;;;0.60;0.60;;;22.60;96.80;;;;;;5013515;28;20216;-69
2023/08/28 04:05:16;;;;;;;1.30;1.10;;;22.60;96.80;;;;;;5010344;28;20215;-69
2023/08/28 04:07:44;;;;;;;0.70;0.70;;;22.60;96.80;;;;;;5032843;28;20210;-69
2023/08/28 04:10:11;;;;;;;0.90;0.90;;;22.60;96.80;;;;;;5020190;28;20205;-69
2023/08/28 04:12:37;;;;;;;0.60;0.60;;;22.50;96.70;;;;;;5034411;28;20180;-69
2023/08/28 04:15:04;;;;;;;0.65;0.60;;;22.60;96.70;;;;;;5013082;28;20624;-69
2023/08/28 04:17:31;;;;;;;0.85;0.85;;;22.60;96.70;;;;;;5015517;28;20186;-69
2023/08/28 04:19:57;;;;;;;0.90;0.90;;;22.50;96.70;;;;;;5015929;28;20202;-69
2023/08/28 04:22:23;;;;;;;0.70;0.70;;;22.50;96.70;;;;;;5032678;28;20245;-69
2023/08/28 04:24:52;;;;;;;0.80;0.80;;;22.50;96.70;;;;;;5016404;28;20194;-70
2023/08/28 04:27:18;;;;;;;0.80;0.80;;;22.50;96.70;;;;;;5013519;28;20211;-69
2023/08/28 04:29:44;;;;;;;0.88;0.88;;;22.50;96.70;;;;;;5034029;28;20175;-69
2023/08/28 04:32:10;;;;;;;0.80;0.80;;;22.50;96.70;;;;;;5008266;28;20191;-69
2023/08/28 04:34:36;;;;;;;0.77;0.77;;;22.50;96.80;;;;;;5032302;28;20183;-69
2023/08/28 04:37:04;;;;;;;0.60;0.60;;;22.50;96.70;;;;;;5032589;28;20214;-69
2023/08/28 04:39:30;;;;;;;0.88;0.63;;;22.50;96.70;;;;;;5015295;28;20187;-69
2023/08/28 04:41:55;;;;;;;0.88;0.88;;;22.50;96.70;;;;;;5013042;28;20282;-69
2023/08/28 04:44:21;;;;;;;0.55;0.55;;;22.50;96.60;;;;;;5029396;28;20191;-69
2023/08/28 04:46:47;;;;;;;0.73;0.65;;;22.50;96.80;;;;;;5012274;28;20212;-69
2023/08/28 04:49:14;;;;;;;0.77;0.77;;;22.50;96.70;;;;;;5025637;28;20560;-69
2023/08/28 04:51:41;;;;;;;1.00;0.93;;;22.50;96.70;;;;;;5032253;28;20195;-68
2023/08/28 04:54:09;;;;;;;0.75;0.75;;;22.60;96.70;;;;;;5031938;28;20186;-68
2023/08/28 04:56:35;;;;;;;0.70;0.70;;;22.50;96.70;;;;;;5032012;28;20215;-69
2023/08/28 04:59:02;;;;;;;0.80;0.80;;;22.50;96.70;;;;;;5012398;28;20187;-68
2023/08/28 05:01:29;;;;;;;0.80;0.80;;;22.50;96.70;;;;;;5038162;28;20274;-68
2023/08/28 05:03:55;;;;;;;0.90;0.90;;;22.50;96.70;;;;;;5037196;28;20304;-68
2023/08/28 05:06:22;;;;;;;0.75;0.73;;;22.50;96.60;;;;;;5035152;28;20249;-69
2023/08/28 05:08:47;;;;;;;0.90;0.90;;;22.60;96.80;;;;;;5039472;28;20262;-68
2023/08/28 05:11:13;;;;;;;0.90;0.90;;;22.50;96.60;;;;;;5015368;28;20175;-68
2023/08/28 05:13:40;;;;;;;1.20;1.02;;;22.50;96.60;;;;;;5031778;28;20176;-69
2023/08/28 05:16:05;;;;;;;1.00;0.98;;;22.50;96.60;;;;;;5038133;28;20214;-68
2023/08/28 05:18:31;;;;;;;0.80;0.80;;;22.50;96.60;;;;;;5041750;28;20175;-69
2023/08/28 05:20:57;;;;;;;1.00;0.88;;;22.50;96.70;;;;;;5032892;28;20195;-69
2023/08/28 05:23:25;;;;;;;0.85;0.80;;;22.50;96.60;;;;;;5032140;28;20229;-69
2023/08/28 05:25:52;;;;;;;1.67;0.90;;;22.50;96.60;;;;;;5038790;28;20210;-69
2023/08/28 05:28:18;;;;;;;1.10;0.88;;;22.50;96.60;;;;;;5028969;28;20264;-69
2023/08/28 05:30:44;;;;;;;0.70;0.70;;;22.50;96.50;;;;;;5035048;28;20186;-69
2023/08/28 05:33:10;;;;;;;0.77;0.77;;;22.50;96.60;;;;;;5036557;28;20187;-70
2023/08/28 05:35:35;;;;;;;0.70;0.70;;;22.50;96.50;;;;;;5024960;28;20209;-69
2023/08/28 05:38:01;;;;;;;0.90;0.90;;;22.50;96.70;;;;;;5024624;28;20232;-69
2023/08/28 05:40:27;;;;;;;0.80;0.75;;;22.50;96.60;;;;;;5033996;28;20182;-69
2023/08/28 05:42:53;;;;;;;0.60;0.60;;;22.50;96.50;;;;;;5035629;28;20178;-68
2023/08/28 05:45:19;;;;;;;0.70;0.70;;;22.50;96.50;;;;;;5034993;28;20207;-69
2023/08/28 05:47:45;;;;;;;1.08;0.98;;;22.50;96.50;;;;;;5031329;28;20290;-69
2023/08/28 05:50:11;;;;;;;0.88;0.88;;;22.50;96.50;;;;;;5031794;28;20270;-69
2023/08/28 05:52:38;;;;;;;0.90;0.90;;;22.50;96.60;;;;;;5031320;28;20178;-69
2023/08/28 05:55:05;;;;;;;1.10;1.00;;;22.50;96.60;;;;;;5031082;28;20183;-69
2023/08/28 05:57:31;;;;;;;0.88;0.80;;;22.50;96.60;;;;;;5039380;28;20536;-69
2023/08/28 05:59:57;;;;;;;0.80;0.80;;;22.50;96.60;;;;;;5039086;28;20206;-69
2023/08/28 06:02:24;;;;;;;0.77;0.77;;;22.50;96.50;;;;;;5023041;28;20187;-68
2023/08/28 06:04:52;;;;;;;0.80;0.80;;;22.50;96.40;;;;;;5031089;28;20213;-69
2023/08/28 06:07:18;;;;;;;0.70;0.70;;;22.50;96.30;;;;;;5030791;28;20217;-68
2023/08/28 06:09:44;;;;;;;0.77;0.77;;;22.50;96.30;;;;;;5041677;28;20959;-68
2023/08/28 06:12:10;;;;;;;0.65;0.65;;;22.50;96.30;;;;;;5036584;28;20189;-68
2023/08/28 06:14:36;;;;;;;0.75;0.70;;;22.50;96.40;;;;;;5038710;28;20205;-68
2023/08/28 06:17:05;;;;;;;0.80;0.80;;;22.50;96.30;;;;;;5030729;28;20294;-68
2023/08/28 06:19:32;;;;;;;0.90;0.90;;;22.50;96.40;;;;;;5030447;28;20220;-68
2023/08/28 06:22:03;;;;;;;1.95;1.02;;;22.50;96.40;;;;;;5030652;28;20179;-69
2023/08/28 06:24:29;;;;;;;0.73;0.73;;;22.50;96.30;;;;;;5030532;28;20564;-69
2023/08/28 06:26:55;;;;;;;0.85;0.85;;;22.40;96.30;;;;;;5038706;28;20211;-68
2023/08/28 06:29:20;;;;;;;0.80;0.80;;;22.50;96.40;;;;;;5036126;28;20194;-68
2023/08/28 06:31:46;;;;;;;1.00;0.90;;;22.50;96.50;;;;;;5024870;28;20195;-68
2023/08/28 06:34:14;;;;;;;0.80;0.80;;;22.50;96.50;;;;;;5035869;28;20183;-67
2023/08/28 06:36:40;;;;;;;0.70;0.70;;;22.50;96.40;;;;;;5037497;28;20250;-68
2023/08/28 06:39:07;;;;;;;0.82;0.80;;;22.50;96.40;;;;;;5041870;28;20187;-68
2023/08/28 06:41:33;;;;;;;0.60;0.60;;;22.50;96.40;;;;;;5039156;28;20186;-68
2023/08/28 06:44:05;;;;;;;1.00;0.90;;;22.50;96.30;;;;;;5023098;28;20279;-69
2023/08/28 06:46:31;;;;;;;0.98;0.80;;;22.50;96.20;;;;;;5025310;28;20215;-68
2023/08/28 06:48:57;;;;;;;1.15;1.00;;;22.50;96.20;;;;;;5046293;28;20226;-68
2023/08/28 06:51:23;;;;;;;0.70;0.60;;;22.50;96.20;;;;;;5030497;28;20652;-68
2023/08/28 06:53:49;;;;;;;0.80;0.80;;;22.40;96.00;;;;;;5030206;28;20183;-66
2023/08/28 06:56:15;;;;;;;0.82;0.82;;;22.50;96.10;;;;;;5030105;28;20327;-68
2023/08/28 06:58:41;;;;;;;1.40;1.05;;;22.50;96.00;;;;;;5023493;28;20191;-68
2023/08/28 07:01:07;;;;;;;1.10;0.90;;;22.50;96.00;;;;;;5014724;28;20194;-68
2023/08/28 07:03:33;;;;;;;1.48;0.88;;;22.50;95.90;;;;;;5017804;28;20180;-68
2023/08/28 07:05:59;;;;;;;0.93;0.80;;;22.40;95.80;;;;;;5007120;28;20580;-68
2023/08/28 07:08:25;;;;;;;0.80;0.80;;;22.40;95.90;;;;;;5044929;28;20203;-68
2023/08/28 07:10:51;;;;;;;0.90;0.90;;;22.40;95.90;;;;;;5030816;28;20194;-68
2023/08/28 07:13:17;;;;;;;1.02;0.77;;;22.40;96.20;;;;;;5028466;28;20189;-67
2023/08/28 07:15:43;;;;;;;0.90;0.90;;;22.40;95.90;;;;;;5031070;28;20230;-68
2023/08/28 07:18:08;;;;;;;1.13;0.90;;;22.40;95.90;;;;;;5019545;28;20198;-68
2023/08/28 07:20:35;;;;;;;0.95;0.95;;;22.40;95.80;;;;;;5033822;28;20198;-68
2023/08/28 07:23:01;;;;;;;0.80;0.80;;;22.40;95.80;;;;;;5042598;28;20249;-67
2023/08/28 07:25:27;;;;;;;1.40;1.10;;;22.50;95.70;;;;;;5041990;28;20330;-68
2023/08/28 07:27:54;;;;;;;1.10;0.95;;;22.40;95.70;;;;;;5045154;28;20266;-68
2023/08/28 07:30:20;;;;;;;1.20;0.88;;;22.40;95.70;;;;;;5045915;28;20193;-68
2023/08/28 07:32:47;;;;;;;0.75;0.75;;;22.50;95.70;;;;;;5026903;28;20182;-68
2023/08/28 07:35:13;;;;;;;0.90;0.90;;;22.50;95.70;;;;;;5047455;28;20236;-69
2023/08/28 07:37:40;;;;;;;1.08;0.85;;;22.50;95.60;;;;;;5028782;28;20194;-68
2023/08/28 07:40:07;;;;;;;1.73;0.70;;;22.50;95.60;;;;;;5028981;28;20649;-68
2023/08/28 07:42:33;;;;;;;0.82;0.80;;;22.50;95.60;;;;;;5045147;28;20190;-68
2023/08/28 07:44:59;;;;;;;1.00;1.00;;;22.50;95.60;;;;;;5018098;28;20278;-69
2023/08/28 07:47:28;;;;;;;1.02;1.00;;;22.50;95.60;;;;;;5037849;28;20289;-68
2023/08/28 07:49:55;;;;;;;0.70;0.70;;;22.40;95.50;;;;;;5025585;28;20179;-69
2023/08/28 07:52:21;;;;;;;1.10;1.00;;;22.40;95.40;;;;;;5037790;28;20216;-69
2023/08/28 07:54:47;;;;;;;0.88;0.82;;;22.50;95.50;;;;;;5050047;28;20182;-68
2023/08/28 07:57:13;;;;;;;2.03;1.00;;;22.40;95.50;;;;;;5041338;28;20235;-69
2023/08/28 07:59:39;;;;;;;0.90;0.90;;;22.40;95.40;;;;;;5042350;28;20214;-69
2023/08/28 08:02:05;;;;;;;1.20;1.10;;;22.40;95.40;;;;;;5042750;28;20191;-68
2023/08/28 08:04:32;;;;;;;2.28;1.17;;;22.40;95.40;;;;;;5032047;28;20194;-69
2023/08/28 08:06:58;;;;;;;1.00;1.00;;;22.40;95.40;;;;;;5024708;28;20598;-68
2023/08/28 08:09:24;;;;;;;0.85;0.85;;;22.40;95.40;;;;;;5040920;28;20211;-68
2023/08/28 08:11:50;;;;;;;1.05;1.00;;;22.40;95.50;;;;;;5043958;28;20186;-69
2023/08/28 08:14:16;;;;;;;1.33;1.23;;;22.40;95.40;;;;;;5043105;28;20194;-68
2023/08/28 08:16:42;;;;;;;2.05;0.90;;;22.40;95.40;;;;;;5044782;28;20222;-69
2023/08/28 08:19:08;;;;;;;1.70;1.08;;;22.40;95.40;;;;;;5028026;28;20199;-69
2023/08/28 08:21:33;;;;;;;1.40;1.10;;;22.40;95.30;;;;;;5028201;28;20178;-68
2023/08/28 08:23:59;;;;;;;1.13;1.02;;;22.40;95.40;;;;;;5024917;28;20190;-67
2023/08/28 08:26:26;;;;;;;0.93;0.93;;;22.40;95.30;;;;;;5024722;28;20214;-68
2023/08/28 08:28:51;;;;;;;1.35;1.20;;;22.40;95.30;;;;;;5043364;28;20245;-69
2023/08/28 08:31:17;;;;;;;1.63;0.98;;;22.40;95.20;;;;;;5044532;28;20186;-69
2023/08/28 08:33:44;;;;;;;1.70;1.00;;;22.40;95.30;;;;;;5043378;28;20175;-68
2023/08/28 08:36:13;;;;;;;1.23;0.95;;;22.40;95.20;;;;;;5042127;28;20271;-68
2023/08/28 08:38:40;;;;;;;0.88;0.88;;;22.40;95.30;;;;;;5042492;28;20187;-69
2023/08/28 08:41:08;;;;;;;0.98;0.98;;;22.40;95.20;;;;;;5044305;28;20170;-69
2023/08/28 08:43:35;;;;;;;1.13;1.08;;;22.40;95.20;;;;;;5044297;28;20179;-69
2023/08/28 08:46:05;;;;;;;1.70;0.85;;;22.40;95.20;;;;;;5040834;28;20203;-69
2023/08/28 08:48:36;;;;;;;2.30;0.90;;;22.40;95.20;;;;;;5039754;28;20202;-69
2023/08/28 08:51:06;;;;;;;1.45;1.30;;;22.40;95.20;;;;;;5040893;28;20639;-69
2023/08/28 08:54:18;;;;;;;1.25;1.08;;;22.40;95.00;;;;;;5040838;28;20195;-68
2023/08/28 08:56:50;;;;;;;1.20;1.13;;;22.40;95.10;;;;;;5038743;28;20206;-69
2023/08/28 08:59:16;;;;;;;1.13;1.00;;;22.40;95.10;;;;;;5045525;28;20175;-68
2023/08/28 09:01:42;;;;;;;1.15;0.90;;;22.40;95.20;;;;;;5043438;28;20210;-68
2023/08/28 09:04:09;;;;;;;1.20;1.10;;;22.40;95.20;;;;;;5040429;28;20281;-69
2023/08/28 09:06:39;;;;;;;1.17;1.13;;;22.40;95.20;;;;;;5039853;28;20203;-69
2023/08/28 09:09:08;;;;;;;1.35;1.10;;;22.40;95.10;;;;;;5023839;28;20199;-69
2023/08/28 09:11:36;;;;;;;1.00;1.00;;;22.40;95.00;;;;;;5024589;28;20195;-68
2023/08/28 09:14:02;;;;;;;1.15;0.95;;;22.40;95.00;;;;;;5037785;28;20183;-68
2023/08/28 09:16:28;;;;;;;1.30;1.20;;;22.40;95.00;;;;;;5031339;28;20313;-68
2023/08/28 09:18:54;;;;;;;1.10;1.00;;;22.40;95.00;;;;;;5020893;28;20236;-69
2023/08/28 09:21:19;;;;;;;1.85;1.15;;;22.40;95.00;;;;;;5028161;28;20180;-68
2023/08/28 09:23:50;;;;;;;1.20;1.10;;;22.40;95.00;;;;;;5037935;28;20186;-68
2023/08/28 09:26:19;;;;;;;1.17;0.98;;;22.40;95.00;;;;;;5031568;28;20206;-68
2023/08/28 09:29:08;;;;;;;1.40;1.30;;;22.40;95.00;;;;;;5041379;28;20189;-69
2023/08/28 09:31:39;;;;;;;1.20;1.10;;;22.40;95.00;;;;;;5036089;28;20191;-69
2023/08/28 09:34:06;;;;;;;1.27;1.10;;;22.40;95.00;;;;;;5032803;28;20222;-69
2023/08/28 09:36:37;;;;;;;1.20;1.10;;;22.40;95.00;;;;;;5032538;28;20658;-69
2023/08/28 09:39:05;;;;;;;1.33;1.23;;;22.40;95.00;;;;;;5047303;28;20536;-69
2023/08/28 09:41:49;;;;;;;1.95;1.10;;;22.40;95.00;;;;;;5032025;28;20222;-68
2023/08/28 09:44:17;;;;;;;1.42;1.10;;;22.40;95.00;;;;;;5020679;28;20235;-68
2023/08/28 09:46:44;;;;;;;0.90;0.90;;;22.40;95.00;;;;;;5045231;28;20237;-70
2023/08/28 09:49:13;;;;;;;1.20;1.10;;;22.40;94.90;;;;;;5007320;28;20184;-68
2023/08/28 09:51:41;;;;;;;1.20;1.10;;;22.40;94.90;;;;;;5039584;28;20187;-68
2023/08/28 09:54:09;;;;;;;1.80;1.00;;;22.40;94.80;;;;;;5031091;28;20211;-68
2023/08/28 09:56:36;;;;;;;1.13;1.02;;;22.40;94.80;;;;;;5040681;28;20206;-68
2023/08/28 09:59:03;;;;;;;1.23;0.93;;;22.40;94.80;;;;;;5041514;28;20609;-68
2023/08/28 10:01:35;;;;;;;1.33;1.23;;;22.40;94.80;;;;;;5044953;28;20195;-66
2023/08/28 10:04:07;;;;;;;0.98;0.93;;;22.40;94.80;;;;;;5040433;28;20198;-68
2023/08/28 10:06:49;;;;;;;1.02;0.90;;;22.40;94.90;;;;;;5030899;28;20265;-68
2023/08/28 10:09:18;;;;;;;1.30;1.15;;;22.40;94.90;;;;;;5024512;28;20179;-68
2023/08/28 10:11:45;;;;;;;1.13;1.02;;;22.40;94.90;;;;;;5032164;28;20258;-68
2023/08/28 10:14:13;;;;;;;1.33;1.23;;;22.40;94.90;;;;;;5038861;28;20183;-68
2023/08/28 10:16:49;;;;;;;1.27;1.02;;;22.40;94.90;;;;;;5037897;28;20210;-69
2023/08/28 10:19:38;;;;;;;0.90;0.90;;;22.40;94.80;;;;;;5038556;28;20191;-69
2023/08/28 10:22:08;;;;;;;1.10;1.00;;;22.40;94.80;;;;;;5014222;28;20194;-69
2023/08/28 10:24:44;;;;;;;1.25;1.15;;;22.40;94.70;;;;;;5030781;28;20179;-69
2023/08/28 10:27:11;;;;;;;1.15;1.05;;;22.40;94.60;;;;;;5033473;28;20261;-69
2023/08/28 10:29:39;;;;;;;1.35;1.05;;;22.40;94.60;;;;;;5043617;28;20181;-70
2023/08/28 10:32:09;;;;;;;1.08;0.98;;;22.40;94.60;;;;;;5023645;28;20184;-69
2023/08/28 10:34:42;;;;;;;2.90;1.20;;;22.40;94.60;;;;;;5030660;28;20175;-67
2023/08/28 10:37:09;;;;;;;1.50;1.00;;;22.50;94.40;;;;;;5031174;28;20292;-68
2023/08/28 10:39:44;;;;;;;1.27;1.17;;;22.50;94.70;;;;;;5028652;28;20178;-68
2023/08/28 10:42:16;;;;;;;2.70;1.17;;;22.40;94.40;;;;;;5039340;28;20195;-69
2023/08/28 10:44:43;;;;;;;1.50;1.20;;;22.40;94.50;;;;;;5029338;28;20197;-69
2023/08/28 10:47:14;;;;;;;1.45;1.10;;;22.40;94.50;;;;;;5031297;28;20215;-68
2023/08/28 10:49:40;;;;;;;1.10;1.00;;;22.50;94.50;;;;;;5022211;28;20269;-69
2023/08/28 10:52:06;;;;;;;2.22;1.00;;;22.50;94.50;;;;;;5030358;28;20274;-69
2023/08/28 10:54:38;;;;;;;1.65;1.20;;;22.40;94.40;;;;;;5030460;28;20186;-68
2023/08/28 10:57:10;;;;;;;1.10;1.00;;;22.50;94.40;;;;;;5030458;28;20211;-69
2023/08/28 10:59:45;;;;;;;2.40;1.30;;;22.40;94.30;;;;;;5028221;28;20182;-68
2023/08/28 11:02:12;;;;;;;1.10;1.00;;;22.40;94.40;;;;;;5039032;28;20194;-70
2023/08/28 11:04:40;;;;;;;1.30;1.13;;;22.40;94.40;;;;;;5028872;28;20226;-69
2023/08/28 11:07:27;;;;;;;1.50;1.00;;;22.40;94.30;;;;;;5030024;28;20215;-68
2023/08/28 11:10:20;;;;;;;1.35;1.20;;;22.40;94.20;;;;;;5038474;28;20251;-68
2023/08/28 11:12:56;;;;;;;1.65;1.20;;;22.40;94.20;;;;;;5030115;28;20187;-70
2023/08/28 11:15:31;;;;;;;1.35;1.25;;;22.40;94.40;;;;;;5021217;28;20198;-69
2023/08/28 11:18:19;;;;;;;1.40;1.30;;;22.40;94.30;;;;;;5038487;28;20190;-69
2023/08/28 11:20:52;;;;;;;1.58;1.48;;;22.40;94.10;;;;;;5035808;28;20274;-69
2023/08/28 11:23:34;;;;;;;1.48;1.00;;;22.40;94.20;;;;;;5021842;28;20183;-69
2023/08/28 11:26:16;;;;;;;1.20;1.10;;;22.40;94.20;;;;;;5030211;28;20299;-69
2023/08/28 11:28:51;;;;;;;1.23;1.13;;;22.40;94.10;;;;;;5026820;28;20206;-69
2023/08/28 11:31:21;;;;;;;1.45;1.20;;;22.40;94.30;;;;;;5030115;28;20560;-69
2023/08/28 11:33:54;;;;;;;2.15;1.00;;;22.40;94.20;;;;;;5038403;28;20175;-70
2023/08/28 11:36:21;;;;;;;1.27;1.10;;;22.40;94.20;;;;;;5033568;28;20206;-70
2023/08/28 11:38:48;;;;;;;1.15;1.05;;;22.40;94.20;;;;;;5034340;28;20270;-69
2023/08/28 11:41:15;;;;;;;1.10;0.93;;;22.40;94.10;;;;;;5031264;28;20183;-68
2023/08/28 11:43:43;;;;;;;2.00;1.00;;;22.40;94.00;;;;;;5031380;28;20179;-69
2023/08/28 11:46:11;;;;;;;1.50;1.20;;;22.40;94.00;;;;;;5038266;28;20276;-70
2023/08/28 11:48:42;;;;;;;1.17;1.10;;;22.40;94.00;;;;;;5045667;28;20221;-70
2023/08/28 11:51:09;;;;;;;1.00;0.95;;;22.40;93.90;;;;;;5042185;28;20197;-69
2023/08/28 11:53:41;;;;;;;1.60;1.00;;;22.40;93.90;;;;;;5033472;28;20213;-69
2023/08/28 11:56:10;;;;;;;1.27;1.08;;;22.40;93.80;;;;;;5047820;28;20269;-70
2023/08/28 11:58:39;;;;;;;2.05;1.20;;;22.40;93.80;;;;;;5042688;28;20194;-69
2023/08/28 12:01:08;;;;;;;0.90;0.90;;;22.40;93.80;;;;;;5033033;28;20187;-70
2023/08/28 12:03:37;;;;;;;1.30;1.20;;;22.40;94.00;;;;;;5033202;28;20187;-69
2023/08/28 12:06:08;;;;;;;1.27;1.17;;;22.40;93.90;;;;;;5047058;28;20223;-70
2023/08/28 12:08:40;;;;;;;0.95;0.93;;;22.40;93.90;;;;;;5033231;28;20211;-70
2023/08/28 12:11:09;;;;;;;2.20;1.10;;;22.40;93.80;;;;;;5034346;28;20183;-70
2023/08/28 12:13:37;;;;;;;1.20;1.10;;;22.40;93.80;;;;;;5030065;28;20181;-70
2023/08/28 12:16:17;;;;;;;1.75;1.25;;;22.40;93.90;;;;;;5035482;28;20230;-69
2023/08/28 12:18:49;;;;;;;2.08;1.13;;;22.40;93.80;;;;;;5047650;28;20220;-69
2023/08/28 12:21:17;;;;;;;1.90;1.20;;;22.40;93.80;;;;;;5034071;28;20187;-69
2023/08/28 12:23:53;;;;;;;1.75;1.60;;;22.40;93.80;;;;;;5047093;28;20183;-70
2023/08/28 12:26:26;;;;;;;1.25;1.15;;;22.40;93.80;;;;;;5016828;28;20210;-69
2023/08/28 12:28:53;;;;;;;1.10;1.10;;;22.40;93.90;;;;;;5032940;28;20191;-69
2023/08/28 12:31:32;;;;;;;1.20;0.95;;;22.40;93.80;;;;;;5033079;28;20191;-69
2023/08/28 12:34:05;;;;;;;1.17;1.08;;;22.40;93.80;;;;;;5032388;28;20186;-70
2023/08/28 12:37:09;;;;;;;1.60;1.15;;;22.40;93.80;;;;;;5025790;28;20203;-70
2023/08/28 12:39:35;;;;;;;1.13;1.00;;;22.40;93.80;;;;;;5030672;28;20183;-70
2023/08/28 12:42:03;;;;;;;1.33;1.00;;;22.40;93.80;;;;;;5044268;28;20183;-70
2023/08/28 12:44:30;;;;;;;0.95;0.95;;;22.40;93.80;;;;;;5052360;28;20196;-69
2023/08/28 12:46:57;;;;;;;1.10;1.02;;;22.40;93.70;;;;;;5045728;28;20215;-70
2023/08/28 12:49:24;;;;;;;2.78;1.55;;;22.40;93.70;;;;;;5044001;28;20197;-70
2023/08/28 12:51:50;;;;;;;1.20;1.08;;;22.40;93.70;;;;;;5038920;28;20207;-70
2023/08/28 12:54:19;;;;;;;2.08;1.02;;;22.40;93.70;;;;;;5041619;28;20313;-70